La Suprema — IBIL — position and weather

sailwx.info

Track history (hours):
 
Tides and Currents Weather Stations Pressure Air Temp Water Temp Dewpoint Dewpoint Depression Visibility Wind Speed Wind Dir Waves Ship Positions

La Suprema

Last reported at 2016-Dec-08 21:33 UTC. Time now 2016-Dec-09 13:40 UTC.
Position N 44°12' E 009°02'.

Length 211 m; draft 7.3 m.

Type: Passenger vessel. MMSI: 247083700.

Date/timePositionNaut miles runAvg speedWind from/ knotsBaromVisibWave heightAir tempDewpointWater temp
2016-Dec-08 21:33N 44°12' E 009°02'1312.9
2016-Dec-08 20:32N 44°25' E 008°55'0 0.0
2016-Dec-08 19:32N 44°25' E 008°55'0 0.0
2016-Dec-08 18:28N 44°25' E 008°55'0 0.0
2016-Dec-08 17:31N 44°25' E 008°55'8 8.5
2016-Dec-08 16:32N 44°17' E 009°00'38723.6
2016-Dec-08 00:07N 38°36' E 013°05'1425.8
2016-Dec-07 23:34N 38°24' E 013°15'1716.6
2016-Dec-07 22:31N 38°08' E 013°22'0 0.0
2016-Dec-07 21:33N 38°08' E 013°22'0 0.0
2016-Dec-07 20:33N 38°08' E 013°22'0 0.0
2016-Dec-07 19:32N 38°08' E 013°22'0 0.0
2016-Dec-07 18:33N 38°08' E 013°22'8 8.0
2016-Dec-07 17:33N 38°16' E 013°22'33322.2
2016-Dec-07 02:33N 43°01' E 009°35'2222.4
2016-Dec-07 01:33N 43°22' E 009°27'2222.4
2016-Dec-07 00:33N 43°43' E 009°16'2322.7
2016-Dec-06 23:33N 44°05' E 009°06'2120.7
2016-Dec-06 22:34N 44°24' E 008°55'1 0.5
2016-Dec-06 21:26N 44°25' E 008°55'0 0.0
2016-Dec-06 20:31N 44°25' E 008°55'0 0.0
2016-Dec-06 18:33N 44°25' E 008°55'5 5.2
2016-Dec-06 17:33N 44°20' E 008°59'2221.8
2016-Dec-06 16:33N 43°60' E 009°10'2222.1
2016-Dec-06 15:33N 43°40' E 009°22'2222.2
2016-Dec-06 14:33N 43°18' E 009°29'34824.9
2016-Dec-06 00:34N 38°17' E 013°21'9 8.8
2016-Dec-05 23:31N 38°08' E 013°22'0 0.0
2016-Dec-05 22:09N 38°08' E 013°22'0 0.0
2016-Dec-05 21:33N 38°08' E 013°22'0 0.0
2016-Dec-05 20:33N 38°08' E 013°22'2 1.5
2016-Dec-05 19:33N 38°08' E 013°24'1111.3
2016-Dec-05 18:33N 38°16' E 013°14'12915.2
2016-Dec-05 10:04N 36°11' E 013°53'1426.7
2016-Dec-05 09:34N 36°01' E 014°05'13 2.1
2016-Dec-05 03:33N 35°51' E 014°15'2423.7
2016-Dec-05 02:33N 36°07' E 013°54'13616.8
2016-Dec-04 18:28N 38°15' E 012°53'2325.9
2016-Dec-04 17:34N 38°15' E 013°23'8 7.6
2016-Dec-04 16:33N 38°08' E 013°22'0 0.0
2016-Dec-04 15:34N 38°08' E 013°22'0 0.0
2016-Dec-04 14:34N 38°08' E 013°22'0 0.1
2016-Dec-04 13:34N 38°08' E 013°22'1515.4
2016-Dec-04 12:34N 38°23' E 013°17'33225.5
2016-Dec-03 23:33N 43°08' E 009°33'2525.3
2016-Dec-03 22:34N 43°31' E 009°21'2525.5
2016-Dec-03 21:34N 43°56' E 009°10'2625.9
2016-Dec-03 20:33N 44°20' E 008°58'5 4.4
2016-Dec-03 19:26N 44°25' E 008°55'0 0.0
2016-Dec-03 18:32N 44°25' E 008°55'0 0.0
2016-Dec-03 17:31N 44°25' E 008°55'0 0.0
2016-Dec-03 16:33N 44°25' E 008°55'0 0.0
2016-Dec-03 15:34N 44°25' E 008°55'0 0.1
2016-Dec-03 14:34N 44°25' E 008°55'1515.1
2016-Dec-03 13:33N 44°11' E 009°04'2121.6
2016-Dec-03 12:34N 43°51' E 009°15'2221.8
2016-Dec-03 11:34N 43°30' E 009°25'34324.5
2016-Dec-02 21:34N 38°31' E 013°09'2625.6
2016-Dec-02 20:34N 38°09' E 013°26'3 3.4
2016-Dec-02 19:33N 38°08' E 013°22'0 0.0
2016-Dec-02 18:32N 38°08' E 013°22'0 0.0
2016-Dec-02 17:32N 38°08' E 013°22'0 0.0
2016-Dec-02 16:32N 38°08' E 013°22'7 7.2
2016-Dec-02 15:33N 38°15' E 013°23'33723.9
2016-Dec-02 01:28N 43°03' E 009°34'2224.5
2016-Dec-02 00:34N 43°24' E 009°26'2524.8
2016-Dec-01 23:34N 43°48' E 009°14'2524.8
2016-Dec-01 22:34N 44°11' E 009°02'1513.5
2016-Dec-01 21:29N 44°25' E 008°55'0 0.0
2016-Dec-01 20:31N 44°25' E 008°55'0 0.0
2016-Dec-01 19:28N 44°25' E 008°55'0 0.0
2016-Dec-01 18:34N 44°25' E 008°55'0 0.0
2016-Dec-01 17:33N 44°25' E 008°55'1111.1
2016-Dec-01 16:33N 44°15' E 009°02'2424.1
2016-Dec-01 15:34N 43°52' E 009°13'2423.7
2016-Dec-01 14:34N 43°30' E 009°25'33723.8
2016-Dec-01 00:22N 38°36' E 013°04'1923.6
2016-Nov-30 23:33N 38°20' E 013°18'1312.7
2016-Nov-30 22:32N 38°08' E 013°22'0 0.0
2016-Nov-30 21:32N 38°08' E 013°22'0 0.0
2016-Nov-30 20:25N 38°08' E 013°22'0 0.0
2016-Nov-30 19:31N 38°08' E 013°22'0 0.0
2016-Nov-30 18:27N 38°08' E 013°22'4 4.7
2016-Nov-30 17:33N 38°12' E 013°24'33823.8
2016-Nov-30 03:23N 43°01' E 009°36'1923.4
2016-Nov-30 02:34N 43°20' E 009°28'2424.1
2016-Nov-30 01:34N 43°42' E 009°17'2424.1
2016-Nov-30 00:34N 44°05' E 009°05'2019.9
2016-Nov-29 23:34N 44°24' E 008°56'1 0.9
2016-Nov-29 22:32N 44°25' E 008°55'0 0.0
2016-Nov-29 21:25N 44°25' E 008°55'0 0.0
2016-Nov-29 20:31N 44°25' E 008°55'0 0.0
2016-Nov-29 19:27N 44°25' E 008°55'0 0.4
2016-Nov-29 18:33N 44°24' E 008°55'1818.1
2016-Nov-29 17:33N 44°08' E 009°06'2424.0
2016-Nov-29 16:34N 43°45' E 009°17'2423.8
2016-Nov-29 15:34N 43°23' E 009°28'33123.6
2016-Nov-29 01:33N 38°35' E 013°05'2423.9
2016-Nov-29 00:34N 38°15' E 013°22'8 7.7
2016-Nov-28 23:33N 38°08' E 013°22'0 0.0
2016-Nov-28 22:33N 38°08' E 013°22'0 0.0
2016-Nov-28 21:33N 38°08' E 013°22'  
Track history (hours):
 
Tides and Currents Weather Stations Pressure Air Temp Water Temp Dewpoint Dewpoint Depression Visibility Wind Speed Wind Dir Waves Ship Positions

La Suprema

Last reported at 2016-Dec-08 21:33 UTC. Time now 2016-Dec-09 13:40 UTC.
Position N 44°12' E 009°02'.

Length 211 m; draft 7.3 m.

Type: Passenger vessel. MMSI: 247083700.

Date/timePositionNaut miles runAvg speedWind from/ knotsBaromVisibWave heightAir tempDewpointWater temp
2016-Dec-08 21:33N 44°12' E 009°02'1312.9
2016-Dec-08 20:32N 44°25' E 008°55'0 0.0
2016-Dec-08 19:32N 44°25' E 008°55'0 0.0
2016-Dec-08 18:28N 44°25' E 008°55'0 0.0
2016-Dec-08 17:31N 44°25' E 008°55'8 8.5
2016-Dec-08 16:32N 44°17' E 009°00'38723.6
2016-Dec-08 00:07N 38°36' E 013°05'1425.8
2016-Dec-07 23:34N 38°24' E 013°15'1716.6
2016-Dec-07 22:31N 38°08' E 013°22'0 0.0
2016-Dec-07 21:33N 38°08' E 013°22'0 0.0
2016-Dec-07 20:33N 38°08' E 013°22'0 0.0
2016-Dec-07 19:32N 38°08' E 013°22'0 0.0
2016-Dec-07 18:33N 38°08' E 013°22'8 8.0
2016-Dec-07 17:33N 38°16' E 013°22'33322.2
2016-Dec-07 02:33N 43°01' E 009°35'2222.4
2016-Dec-07 01:33N 43°22' E 009°27'2222.4
2016-Dec-07 00:33N 43°43' E 009°16'2322.7
2016-Dec-06 23:33N 44°05' E 009°06'2120.7
2016-Dec-06 22:34N 44°24' E 008°55'1 0.5
2016-Dec-06 21:26N 44°25' E 008°55'0 0.0
2016-Dec-06 20:31N 44°25' E 008°55'0 0.0
2016-Dec-06 18:33N 44°25' E 008°55'5 5.2
2016-Dec-06 17:33N 44°20' E 008°59'2221.8
2016-Dec-06 16:33N 43°60' E 009°10'2222.1
2016-Dec-06 15:33N 43°40' E 009°22'2222.2
2016-Dec-06 14:33N 43°18' E 009°29'34824.9
2016-Dec-06 00:34N 38°17' E 013°21'9 8.8
2016-Dec-05 23:31N 38°08' E 013°22'0 0.0
2016-Dec-05 22:09N 38°08' E 013°22'0 0.0
2016-Dec-05 21:33N 38°08' E 013°22'0 0.0
2016-Dec-05 20:33N 38°08' E 013°22'2 1.5
2016-Dec-05 19:33N 38°08' E 013°24'1111.3
2016-Dec-05 18:33N 38°16' E 013°14'12915.2
2016-Dec-05 10:04N 36°11' E 013°53'1426.7
2016-Dec-05 09:34N 36°01' E 014°05'13 2.1
2016-Dec-05 03:33N 35°51' E 014°15'2423.7
2016-Dec-05 02:33N 36°07' E 013°54'13616.8
2016-Dec-04 18:28N 38°15' E 012°53'2325.9
2016-Dec-04 17:34N 38°15' E 013°23'8 7.6
2016-Dec-04 16:33N 38°08' E 013°22'0 0.0
2016-Dec-04 15:34N 38°08' E 013°22'0 0.0
2016-Dec-04 14:34N 38°08' E 013°22'0 0.1
2016-Dec-04 13:34N 38°08' E 013°22'1515.4
2016-Dec-04 12:34N 38°23' E 013°17'33225.5
2016-Dec-03 23:33N 43°08' E 009°33'2525.3
2016-Dec-03 22:34N 43°31' E 009°21'2525.5
2016-Dec-03 21:34N 43°56' E 009°10'2625.9
2016-Dec-03 20:33N 44°20' E 008°58'5 4.4
2016-Dec-03 19:26N 44°25' E 008°55'0 0.0
2016-Dec-03 18:32N 44°25' E 008°55'0 0.0
2016-Dec-03 17:31N 44°25' E 008°55'0 0.0
2016-Dec-03 16:33N 44°25' E 008°55'0 0.0
2016-Dec-03 15:34N 44°25' E 008°55'0 0.1
2016-Dec-03 14:34N 44°25' E 008°55'1515.1
2016-Dec-03 13:33N 44°11' E 009°04'2121.6
2016-Dec-03 12:34N 43°51' E 009°15'2221.8
2016-Dec-03 11:34N 43°30' E 009°25'34324.5
2016-Dec-02 21:34N 38°31' E 013°09'2625.6
2016-Dec-02 20:34N 38°09' E 013°26'3 3.4
2016-Dec-02 19:33N 38°08' E 013°22'0 0.0
2016-Dec-02 18:32N 38°08' E 013°22'0 0.0
2016-Dec-02 17:32N 38°08' E 013°22'0 0.0
2016-Dec-02 16:32N 38°08' E 013°22'7 7.2
2016-Dec-02 15:33N 38°15' E 013°23'33723.9
2016-Dec-02 01:28N 43°03' E 009°34'2224.5
2016-Dec-02 00:34N 43°24' E 009°26'2524.8
2016-Dec-01 23:34N 43°48' E 009°14'2524.8
2016-Dec-01 22:34N 44°11' E 009°02'1513.5
2016-Dec-01 21:29N 44°25' E 008°55'0 0.0
2016-Dec-01 20:31N 44°25' E 008°55'0 0.0
2016-Dec-01 19:28N 44°25' E 008°55'0 0.0
2016-Dec-01 18:34N 44°25' E 008°55'0 0.0
2016-Dec-01 17:33N 44°25' E 008°55'1111.1
2016-Dec-01 16:33N 44°15' E 009°02'2424.1
2016-Dec-01 15:34N 43°52' E 009°13'2423.7
2016-Dec-01 14:34N 43°30' E 009°25'33723.8
2016-Dec-01 00:22N 38°36' E 013°04'1923.6
2016-Nov-30 23:33N 38°20' E 013°18'1312.7
2016-Nov-30 22:32N 38°08' E 013°22'0 0.0
2016-Nov-30 21:32N 38°08' E 013°22'0 0.0
2016-Nov-30 20:25N 38°08' E 013°22'0 0.0
2016-Nov-30 19:31N 38°08' E 013°22'0 0.0
2016-Nov-30 18:27N 38°08' E 013°22'4 4.7
2016-Nov-30 17:33N 38°12' E 013°24'33823.8
2016-Nov-30 03:23N 43°01' E 009°36'1923.4
2016-Nov-30 02:34N 43°20' E 009°28'2424.1
2016-Nov-30 01:34N 43°42' E 009°17'2424.1
2016-Nov-30 00:34N 44°05' E 009°05'2019.9
2016-Nov-29 23:34N 44°24' E 008°56'1 0.9
2016-Nov-29 22:32N 44°25' E 008°55'0 0.0
2016-Nov-29 21:25N 44°25' E 008°55'0 0.0
2016-Nov-29 20:31N 44°25' E 008°55'0 0.0
2016-Nov-29 19:27N 44°25' E 008°55'0 0.4
2016-Nov-29 18:33N 44°24' E 008°55'1818.1
2016-Nov-29 17:33N 44°08' E 009°06'2424.0
2016-Nov-29 16:34N 43°45' E 009°17'2423.8
2016-Nov-29 15:34N 43°23' E 009°28'33123.6
2016-Nov-29 01:33N 38°35' E 013°05'2423.9
2016-Nov-29 00:34N 38°15' E 013°22'8 7.7
2016-Nov-28 23:33N 38°08' E 013°22'0 0.0
2016-Nov-28 22:33N 38°08' E 013°22'0 0.0
2016-Nov-28 21:33N 38°08' E 013°22'  

Dump ship's entire track history